createdAt,value
2024-05-09T00:04:59.449Z,7.4
2024-05-09T00:20:41.880Z,7.2
2024-05-09T00:36:24.057Z,9.3
2024-05-09T00:52:06.253Z,10.1
2024-05-09T01:07:48.601Z,7.9
2024-05-09T01:23:30.722Z,8.39
2024-05-09T01:39:13.168Z,8.39
2024-05-09T01:54:55.805Z,8.7
2024-05-09T02:10:38.721Z,8.89
2024-05-09T02:26:20.881Z,8.6
2024-05-09T02:42:03.475Z,10.8
2024-05-09T02:57:45.659Z,10.2
2024-05-09T03:13:28.117Z,9.2
2024-05-09T03:29:10.991Z,9.6
2024-05-09T03:44:53.645Z,10.2
2024-05-09T04:00:36.071Z,9.2
2024-05-09T04:16:18.751Z,11.6
2024-05-09T04:32:01.112Z,9.1
2024-05-09T04:47:43.657Z,8.8
2024-05-09T05:03:26.539Z,9.1
2024-05-09T05:19:09.145Z,9
2024-05-09T05:34:51.566Z,9.1
2024-05-09T05:50:34.083Z,8
2024-05-09T06:06:16.654Z,8.3
2024-05-09T06:21:58.955Z,7.8
2024-05-09T06:37:41.169Z,7.7
2024-05-09T06:53:23.702Z,7.7
2024-05-09T07:09:06.065Z,6.3
2024-05-09T07:24:48.081Z,7.2
2024-05-09T07:40:30.637Z,7.3
2024-05-09T07:56:13.050Z,6.7
2024-05-09T08:11:55.569Z,5.7
2024-05-09T08:27:37.925Z,6.9
2024-05-09T08:43:20.048Z,5.7
2024-05-09T08:59:02.064Z,5.1
2024-05-09T09:14:44.009Z,5
2024-05-09T09:30:26.685Z,5.6
2024-05-09T09:46:09.408Z,5.1
2024-05-09T10:01:51.487Z,6.3
2024-05-09T10:17:33.327Z,5.1
2024-05-09T10:33:15.450Z,4.6
2024-05-09T10:48:58.140Z,3.8
2024-05-09T11:04:40.089Z,4.69
2024-05-09T11:20:22.186Z,5.7
2024-05-09T11:36:04.945Z,4.5
2024-05-09T11:51:46.876Z,5.5
2024-05-09T12:07:29.151Z,5
2024-05-09T12:23:11.287Z,4.9
2024-05-09T12:38:54.006Z,2.7
2024-05-09T12:54:35.920Z,4.19
2024-05-09T13:10:18.519Z,4.4
2024-05-09T13:26:00.468Z,4
2024-05-09T13:41:43.030Z,3
2024-05-09T13:57:25.347Z,3.1
2024-05-09T14:13:07.921Z,3.7
2024-05-09T14:28:50.277Z,3.8
2024-05-09T14:44:32.962Z,3.4
2024-05-09T15:00:14.815Z,3.2
2024-05-09T15:15:57.563Z,4.3
2024-05-09T15:31:40.180Z,4.3
2024-05-09T15:47:22.549Z,4
2024-05-09T16:03:04.795Z,4.1
2024-05-09T16:18:46.990Z,4.9
2024-05-09T16:34:28.939Z,4.6
2024-05-09T16:50:11.042Z,5.3
2024-05-09T17:05:53.382Z,4.6
2024-05-09T17:21:36.244Z,6.6
2024-05-09T17:37:19.110Z,5.7
2024-05-09T17:53:01.734Z,5.9
2024-05-09T18:08:44.412Z,5.5
2024-05-09T18:24:27.056Z,5.6
2024-05-09T18:40:10.000Z,5.6
2024-05-09T18:55:53.141Z,5.7
2024-05-09T19:11:35.959Z,6.3
2024-05-09T19:27:18.039Z,12.1
2024-05-09T19:43:00.282Z,11
2024-05-09T19:58:42.444Z,12.4
2024-05-09T19:59:29.764Z,12.9
2024-05-09T20:15:12.053Z,13.7
2024-05-09T20:30:54.706Z,10.3
2024-05-09T20:46:37.349Z,9.2
2024-05-09T21:02:19.895Z,9.7
2024-05-09T21:18:02.526Z,11.3
2024-05-09T21:33:45.585Z,10.5
2024-05-09T21:49:28.645Z,9.89
2024-05-09T22:05:11.014Z,12.2
2024-05-09T22:20:54.223Z,13.1
2024-05-09T22:36:36.954Z,11.4
2024-05-09T22:52:19.102Z,15.7
2024-05-09T23:08:01.262Z,13.8
2024-05-09T23:23:43.951Z,11.7
2024-05-09T23:39:27.081Z,11.9
2024-05-09T23:55:09.744Z,13.3
